createdAt,value
2019-04-10T00:00:28.689Z,21.86
2019-04-10T00:03:02.309Z,21.86
2019-04-10T00:05:36.172Z,21.79
2019-04-10T00:08:10.164Z,21.78
2019-04-10T00:10:45.842Z,21.74
2019-04-10T00:13:19.247Z,21.71
2019-04-10T00:15:52.914Z,21.70
2019-04-10T00:18:26.391Z,21.69
2019-04-10T00:21:00.825Z,21.67
2019-04-10T00:23:35.242Z,21.62
2019-04-10T00:26:09.811Z,21.46
2019-04-10T00:28:44.512Z,21.57
2019-04-10T00:31:18.040Z,21.55
2019-04-10T00:33:51.459Z,21.51
2019-04-10T00:36:26.848Z,21.57
2019-04-10T00:39:00.298Z,21.53
2019-04-10T00:41:35.278Z,21.54
2019-04-10T00:44:08.629Z,21.49
2019-04-10T00:46:42.165Z,21.48
2019-04-10T00:49:15.633Z,21.45
2019-04-10T00:51:49.915Z,21.46
2019-04-10T00:54:23.779Z,21.43
2019-04-10T00:56:57.123Z,21.40
2019-04-10T00:59:30.461Z,21.37
2019-04-10T01:02:04.601Z,21.32
2019-04-10T01:04:39.029Z,21.32
2019-04-10T01:07:13.453Z,21.32
2019-04-10T01:09:47.893Z,21.29
2019-04-10T01:12:21.565Z,21.30
2019-04-10T01:14:56.191Z,21.28
2019-04-10T01:17:31.128Z,21.27
2019-04-10T01:20:07.116Z,21.24
2019-04-10T01:22:41.492Z,21.24
2019-04-10T01:25:14.944Z,21.22
2019-04-10T01:27:48.341Z,21.21
2019-04-10T01:30:22.249Z,21.23
2019-04-10T01:32:56.536Z,21.18
2019-04-10T01:35:30.102Z,21.17
2019-04-10T01:38:05.654Z,21.15
2019-04-10T01:40:39.398Z,21.16
2019-04-10T01:43:17.107Z,21.12
2019-04-10T01:45:48.099Z,21.17
2019-04-10T01:48:21.435Z,21.10
2019-04-10T01:50:57.031Z,21.07
2019-04-10T01:53:30.590Z,21.05
2019-04-10T01:56:05.195Z,21.03
2019-04-10T01:58:38.811Z,21.02
2019-04-10T02:01:14.136Z,21.01
2019-04-10T02:03:47.647Z,21.03
2019-04-10T02:06:21.082Z,20.99
2019-04-10T02:08:54.433Z,20.99
2019-04-10T02:11:28.051Z,20.99
2019-04-10T02:14:01.546Z,20.99
2019-04-10T02:16:34.858Z,20.98
2019-04-10T02:19:08.348Z,20.95
2019-04-10T02:21:44.265Z,20.95
2019-04-10T02:24:18.755Z,20.91
2019-04-10T02:26:53.998Z,20.89
2019-04-10T02:29:28.043Z,20.83
2019-04-10T02:32:02.132Z,20.87
2019-04-10T02:34:36.947Z,20.81
2019-04-10T02:37:11.023Z,20.79
2019-04-10T02:39:47.800Z,20.80
2019-04-10T02:42:20.831Z,20.78
2019-04-10T02:44:54.343Z,20.72
2019-04-10T02:47:28.325Z,20.74
2019-04-10T02:50:03.512Z,20.70
2019-04-10T02:52:37.102Z,20.72
2019-04-10T02:55:12.046Z,20.69
2019-04-10T02:57:45.973Z,20.69
2019-04-10T03:00:20.340Z,20.63
2019-04-10T03:02:56.636Z,20.63
2019-04-10T03:05:30.470Z,20.61
2019-04-10T03:08:05.414Z,20.61
2019-04-10T03:10:47.366Z,20.57
2019-04-10T03:13:14.501Z,20.56
2019-04-10T03:15:49.708Z,20.52
2019-04-10T03:18:23.044Z,20.49
2019-04-10T03:20:56.466Z,20.48
2019-04-10T03:23:29.917Z,20.50
2019-04-10T03:26:03.576Z,20.46
2019-04-10T03:28:37.128Z,20.47
2019-04-10T03:31:10.774Z,20.46
2019-04-10T03:33:49.377Z,20.45
2019-04-10T03:36:21.184Z,20.56
2019-04-10T03:38:59.913Z,20.62
2019-04-10T03:41:30.298Z,20.72
2019-04-10T03:44:03.717Z,20.87
2019-04-10T03:46:38.702Z,21.01
2019-04-10T03:49:12.155Z,21.14
2019-04-10T03:51:47.082Z,21.28
2019-04-10T03:54:20.799Z,21.38
2019-04-10T03:56:54.198Z,21.50
2019-04-10T03:59:28.534Z,21.59
2019-04-10T04:02:03.098Z,21.69
2019-04-10T04:04:37.458Z,21.85
2019-04-10T04:07:11.292Z,22.06
2019-04-10T04:09:44.682Z,22.22
2019-04-10T04:12:18.192Z,22.45
2019-04-10T04:14:51.554Z,22.66
2019-04-10T04:17:24.849Z,22.92
2019-04-10T04:19:58.793Z,23.04
2019-04-10T04:22:32.691Z,23.23
2019-04-10T04:25:06.763Z,23.38
2019-04-10T04:27:40.193Z,23.51
2019-04-10T04:30:14.608Z,23.62
2019-04-10T04:32:48.430Z,23.67
2019-04-10T04:35:22.260Z,23.74
2019-04-10T04:37:55.643Z,23.81
2019-04-10T04:40:29.953Z,23.80
2019-04-10T04:43:03.693Z,23.84
2019-04-10T04:45:37.785Z,23.89
2019-04-10T04:48:11.179Z,23.89
2019-04-10T04:50:45.676Z,23.92
2019-04-10T04:53:19.237Z,23.92
2019-04-10T04:55:53.717Z,23.90
2019-04-10T04:58:27.008Z,23.98
2019-04-10T05:01:00.352Z,23.92
2019-04-10T05:03:33.682Z,23.94
2019-04-10T05:06:08.623Z,23.92
2019-04-10T05:08:42.092Z,23.89
2019-04-10T05:11:15.441Z,23.85
2019-04-10T05:13:49.047Z,23.85
2019-04-10T05:16:22.759Z,23.80
2019-04-10T05:18:56.573Z,23.77
2019-04-10T05:21:29.916Z,23.76
2019-04-10T05:24:03.320Z,23.73
2019-04-10T05:26:36.622Z,23.67
2019-04-10T05:29:11.020Z,23.74
2019-04-10T05:31:44.724Z,23.64
2019-04-10T05:34:18.318Z,23.59
2019-04-10T05:36:54.970Z,23.57
2019-04-10T05:39:39.802Z,23.55
2019-04-10T05:42:04.777Z,23.55
2019-04-10T05:44:40.187Z,23.52
2019-04-10T05:47:14.964Z,23.48
2019-04-10T05:49:49.150Z,23.45
2019-04-10T05:52:22.825Z,23.38
2019-04-10T05:54:56.178Z,23.29
2019-04-10T05:57:32.932Z,23.29
2019-04-10T06:00:08.290Z,23.30
2019-04-10T06:02:41.898Z,23.33
2019-04-10T06:05:18.142Z,23.36
2019-04-10T06:07:52.460Z,23.32
2019-04-10T06:10:26.741Z,23.39
2019-04-10T06:13:00.519Z,23.43
2019-04-10T06:15:35.126Z,23.55
2019-04-10T06:18:09.141Z,23.43
2019-04-10T06:20:43.010Z,23.36
2019-04-10T06:23:17.027Z,23.33
2019-04-10T06:25:50.788Z,23.33
2019-04-10T06:28:25.783Z,23.34
2019-04-10T06:30:59.317Z,23.43
2019-04-10T06:33:33.905Z,23.43
2019-04-10T06:36:07.511Z,23.38
2019-04-10T06:38:41.221Z,23.39
2019-04-10T06:41:16.197Z,23.40
2019-04-10T06:43:49.946Z,23.38
2019-04-10T06:46:24.337Z,23.35
2019-04-10T06:48:58.444Z,23.27
2019-04-10T06:51:33.420Z,23.33
2019-04-10T06:54:11.238Z,23.24
2019-04-10T06:56:43.041Z,23.13
2019-04-10T06:59:16.464Z,23.17
2019-04-10T07:01:53.378Z,23.17
2019-04-10T07:04:26.587Z,23.12
2019-04-10T07:07:09.362Z,23.07
2019-04-10T07:09:40.341Z,23.10
2019-04-10T07:12:14.947Z,23.11
2019-04-10T07:14:50.811Z,23.13
2019-04-10T07:17:23.719Z,23.14
2019-04-10T07:19:57.612Z,23.23
2019-04-10T07:22:31.384Z,22.74
2019-04-10T07:25:09.342Z,23.34
2019-04-10T07:27:41.775Z,23.24
2019-04-10T07:30:15.682Z,23.26
2019-04-10T07:32:49.322Z,23.24
2019-04-10T07:35:23.677Z,23.33
2019-04-10T07:37:59.610Z,23.37
2019-04-10T07:40:36.352Z,23.43
2019-04-10T07:43:08.227Z,23.50
2019-04-10T07:45:41.682Z,23.52
2019-04-10T07:48:16.168Z,23.64
2019-04-10T07:50:49.707Z,23.56
2019-04-10T07:53:23.141Z,23.56
2019-04-10T07:56:05.277Z,23.57
2019-04-10T07:58:31.996Z,23.52
2019-04-10T08:01:05.417Z,23.64
2019-04-10T08:03:39.563Z,23.59
2019-04-10T08:06:13.292Z,23.58
2019-04-10T08:08:46.924Z,23.59
2019-04-10T08:11:20.435Z,23.68
2019-04-10T08:13:54.965Z,23.71
2019-04-10T08:16:28.851Z,23.76
2019-04-10T08:19:02.332Z,23.82
2019-04-10T08:21:35.937Z,23.73
2019-04-10T08:24:11.425Z,23.63
2019-04-10T08:26:45.177Z,23.51
2019-04-10T08:29:22.149Z,23.38
2019-04-10T08:31:56.042Z,23.20
2019-04-10T08:34:29.317Z,23.08
2019-04-10T08:37:03.751Z,23.03
2019-04-10T08:39:41.671Z,22.97
2019-04-10T08:42:12.677Z,22.91
2019-04-10T08:44:46.621Z,22.87
2019-04-10T08:47:20.213Z,22.84
2019-04-10T08:49:54.911Z,22.79
2019-04-10T08:52:28.440Z,22.74
2019-04-10T08:55:01.993Z,22.71
2019-04-10T08:57:36.377Z,22.69
2019-04-10T09:00:10.375Z,22.65
2019-04-10T09:02:44.473Z,22.63
2019-04-10T09:05:17.983Z,22.61
2019-04-10T09:07:52.634Z,22.54
2019-04-10T09:10:28.135Z,22.57
2019-04-10T09:13:01.550Z,22.54
2019-04-10T09:15:36.106Z,22.53
2019-04-10T09:18:11.361Z,22.48
2019-04-10T09:20:45.257Z,22.43
2019-04-10T09:23:30.842Z,22.41
2019-04-10T09:25:53.608Z,22.39
2019-04-10T09:28:27.095Z,22.37
2019-04-10T09:31:01.684Z,22.36
2019-04-10T09:33:35.126Z,22.37
2019-04-10T09:36:09.054Z,22.38
2019-04-10T09:38:43.946Z,22.35
2019-04-10T09:41:17.583Z,22.35
2019-04-10T09:43:52.695Z,22.31
2019-04-10T09:46:26.819Z,22.30
2019-04-10T09:49:00.547Z,22.27
2019-04-10T09:51:34.144Z,22.36
2019-04-10T09:54:07.926Z,22.47
2019-04-10T09:56:41.975Z,22.57
2019-04-10T09:59:16.026Z,22.63
2019-04-10T10:01:51.275Z,22.68
2019-04-10T10:04:25.743Z,22.71
2019-04-10T10:06:59.823Z,22.74
2019-04-10T10:09:34.543Z,22.82
2019-04-10T10:12:09.509Z,22.85
2019-04-10T10:14:44.207Z,22.82
2019-04-10T10:17:17.815Z,22.86
2019-04-10T10:19:53.545Z,22.82
2019-04-10T10:22:27.296Z,22.79
2019-04-10T10:25:02.927Z,22.87
2019-04-10T10:27:38.323Z,22.80
2019-04-10T10:30:11.978Z,22.82
2019-04-10T10:32:45.618Z,22.83
2019-04-10T10:35:19.007Z,22.84
2019-04-10T10:37:52.384Z,22.80
2019-04-10T10:40:25.689Z,22.75
2019-04-10T10:43:00.239Z,22.78
2019-04-10T10:45:34.661Z,22.76
2019-04-10T10:48:08.746Z,22.77
2019-04-10T10:50:43.524Z,22.73
2019-04-10T10:53:16.862Z,22.75
2019-04-10T10:55:51.363Z,22.83
2019-04-10T10:58:25.818Z,22.79
2019-04-10T11:00:59.860Z,22.73
2019-04-10T11:03:34.148Z,22.60
2019-04-10T11:06:08.706Z,22.55
2019-04-10T11:08:43.914Z,22.46
2019-04-10T11:11:17.487Z,22.38
2019-04-10T11:13:50.830Z,22.35
2019-04-10T11:16:24.836Z,22.35
2019-04-10T11:18:59.269Z,22.30
2019-04-10T11:21:32.597Z,22.21
2019-04-10T11:24:06.925Z,22.09
2019-04-10T11:26:40.427Z,22.01
2019-04-10T11:29:14.360Z,21.98
2019-04-10T11:31:48.945Z,21.96
2019-04-10T11:34:22.964Z,21.90
2019-04-10T11:37:16.625Z,21.86
2019-04-10T11:39:34.782Z,21.97
2019-04-10T11:42:09.940Z,22.06
2019-04-10T11:44:45.649Z,22.19
2019-04-10T11:47:19.916Z,22.33
2019-04-10T11:49:53.817Z,22.48
2019-04-10T11:55:10.582Z,22.78
2019-04-10T11:57:39.047Z,22.88
2019-04-10T12:00:18.824Z,23.00
2019-04-10T12:02:49.847Z,23.06
2019-04-10T12:05:25.483Z,23.12
2019-04-10T12:13:08.250Z,23.24
2019-04-10T12:15:42.897Z,23.29
2019-04-10T12:18:16.823Z,23.33
2019-04-10T12:20:50.146Z,23.33
2019-04-10T12:23:23.600Z,23.33
2019-04-10T12:25:56.942Z,23.36
2019-04-10T12:28:31.502Z,23.40
2019-04-10T12:31:05.908Z,23.43
2019-04-10T12:33:40.349Z,23.46
2019-04-10T12:36:14.202Z,23.54
2019-04-10T12:38:48.565Z,23.62
2019-04-10T12:41:21.859Z,23.69
2019-04-10T12:43:55.191Z,23.70
2019-04-10T12:46:28.907Z,23.72
2019-04-10T12:49:03.718Z,23.71
2019-04-10T12:51:38.232Z,23.71
2019-04-10T12:54:12.113Z,23.71
2019-04-10T12:56:46.356Z,23.77
2019-04-10T12:59:19.806Z,23.88
2019-04-10T13:01:54.046Z,23.79
2019-04-10T13:04:28.198Z,23.64
2019-04-10T13:07:01.727Z,23.56
2019-04-10T13:09:35.080Z,23.50
2019-04-10T13:12:09.059Z,23.51
2019-04-10T13:14:43.110Z,23.43
2019-04-10T13:17:16.641Z,23.40
2019-04-10T13:19:51.326Z,23.29
2019-04-10T13:22:25.513Z,23.30
2019-04-10T13:25:01.810Z,23.39
2019-04-10T13:27:35.237Z,23.61
2019-04-10T13:30:11.176Z,23.64
2019-04-10T13:32:44.444Z,23.74
2019-04-10T13:35:19.501Z,23.94
2019-04-10T13:37:53.038Z,24.35
2019-04-10T13:40:27.901Z,24.71
2019-04-10T13:43:01.368Z,25.01
2019-04-10T13:45:35.344Z,25.27
2019-04-10T13:48:08.766Z,25.50
2019-04-10T13:50:43.173Z,25.70
2019-04-10T13:53:17.454Z,25.80
2019-04-10T13:55:51.238Z,25.91
2019-04-10T13:58:26.474Z,26.03
2019-04-10T14:01:01.014Z,26.13
2019-04-10T14:03:36.478Z,26.27
2019-04-10T14:06:09.836Z,26.43
2019-04-10T14:09:05.835Z,26.71
2019-04-10T14:11:19.551Z,26.95
2019-04-10T14:13:53.997Z,27.09
2019-04-10T14:16:27.476Z,27.00
2019-04-10T14:19:01.223Z,26.98
2019-04-10T14:21:35.255Z,26.84
2019-04-10T14:24:09.532Z,26.56
2019-04-10T14:26:48.879Z,26.36
2019-04-10T14:29:18.500Z,26.05
2019-04-10T14:31:53.261Z,25.89
2019-04-10T14:34:28.458Z,25.83
2019-04-10T14:37:02.991Z,25.75
2019-04-10T14:39:37.552Z,25.75
2019-04-10T14:42:11.780Z,25.75
2019-04-10T14:44:46.403Z,25.67
2019-04-10T14:47:19.824Z,25.67
2019-04-10T14:49:54.880Z,25.67
2019-04-10T14:52:29.469Z,25.67
2019-04-10T14:55:04.067Z,25.65
2019-04-10T14:57:39.092Z,25.64
2019-04-10T15:00:12.785Z,25.63
2019-04-10T15:02:46.666Z,25.59
2019-04-10T15:05:20.281Z,25.56
2019-04-10T15:07:53.710Z,25.50
2019-04-10T15:10:27.178Z,25.49
2019-04-10T15:13:09.087Z,25.45
2019-04-10T15:15:36.600Z,25.47
2019-04-10T15:18:10.846Z,25.41
2019-04-10T15:20:45.314Z,25.40
2019-04-10T15:23:18.893Z,25.33
2019-04-10T15:25:52.875Z,25.31
2019-04-10T15:28:28.000Z,25.34
2019-04-10T15:31:02.057Z,25.33
2019-04-10T15:33:37.297Z,25.32
2019-04-10T15:36:11.597Z,25.33
2019-04-10T15:38:46.401Z,25.37
2019-04-10T15:41:23.901Z,25.36
2019-04-10T15:43:57.782Z,25.40
2019-04-10T15:46:31.422Z,25.45
2019-04-10T15:49:07.023Z,25.47
2019-04-10T15:51:41.378Z,25.44
2019-04-10T15:54:15.867Z,25.46
2019-04-10T15:56:56.687Z,25.45
2019-04-10T15:59:30.780Z,25.42
2019-04-10T16:02:09.448Z,24.84
2019-04-10T16:04:49.258Z,25.38
2019-04-10T16:07:24.458Z,25.49
2019-04-10T16:09:59.105Z,25.56
2019-04-10T16:12:33.452Z,25.57
2019-04-10T16:15:07.002Z,25.59
2019-04-10T16:17:41.859Z,25.64
2019-04-10T16:20:17.835Z,25.67
2019-04-10T16:22:51.333Z,25.69
2019-04-10T16:25:25.603Z,25.66
2019-04-10T16:27:59.182Z,25.70
2019-04-10T16:30:33.060Z,25.73
2019-04-10T16:33:07.122Z,26.06
2019-04-10T16:35:41.662Z,25.98
2019-04-10T16:38:16.267Z,25.95
2019-04-10T16:40:50.368Z,25.93
2019-04-10T16:43:26.964Z,25.93
2019-04-10T16:46:00.842Z,25.95
2019-04-10T16:48:35.994Z,25.97
2019-04-10T16:51:12.036Z,25.92
2019-04-10T16:53:46.224Z,25.90
2019-04-10T16:56:19.556Z,25.82
2019-04-10T16:58:53.066Z,25.77
2019-04-10T17:01:26.847Z,25.73
2019-04-10T17:04:00.838Z,25.68
2019-04-10T17:06:36.467Z,25.60
2019-04-10T17:09:10.466Z,25.78
2019-04-10T17:11:45.202Z,25.60
2019-04-10T17:14:20.400Z,25.53
2019-04-10T17:16:54.030Z,25.43
2019-04-10T17:19:28.826Z,25.51
2019-04-10T17:22:04.688Z,25.36
2019-04-10T17:24:39.648Z,25.31
2019-04-10T17:27:13.586Z,25.50
2019-04-10T17:29:47.570Z,25.31
2019-04-10T17:32:21.468Z,25.19
2019-04-10T17:34:57.073Z,25.13
2019-04-10T17:37:31.783Z,25.06
2019-04-10T17:40:08.329Z,24.99
2019-04-10T17:42:42.476Z,24.92
2019-04-10T17:45:15.990Z,24.86
2019-04-10T17:47:49.612Z,24.98
2019-04-10T17:50:24.505Z,24.88
2019-04-10T17:52:58.895Z,24.82
2019-04-10T17:55:33.666Z,24.79
2019-04-10T17:58:07.589Z,24.78
2019-04-10T18:00:41.009Z,24.76
2019-04-10T18:03:17.684Z,24.75
2019-04-10T18:05:50.821Z,24.72
2019-04-10T18:08:26.747Z,24.66
2019-04-10T18:11:01.993Z,24.90
2019-04-10T18:13:49.174Z,24.71
2019-04-10T18:16:36.496Z,24.61
2019-04-10T18:19:30.323Z,24.52
2019-04-10T18:22:28.883Z,24.44
2019-04-10T18:25:13.859Z,24.38
2019-04-10T18:27:56.954Z,24.32
2019-04-10T18:30:39.106Z,24.28
2019-04-10T18:33:16.128Z,24.22
2019-04-10T18:35:51.511Z,24.19
2019-04-10T18:38:25.796Z,24.18
2019-04-10T18:41:05.282Z,24.14
2019-04-10T18:43:37.707Z,24.42
2019-04-10T18:46:16.409Z,24.28
2019-04-10T18:48:51.382Z,24.21
2019-04-10T18:51:25.833Z,24.16
2019-04-10T18:54:01.513Z,24.12
2019-04-10T18:56:35.470Z,24.07
2019-04-10T18:59:10.210Z,24.06
2019-04-10T19:01:45.434Z,24.01
2019-04-10T19:04:18.834Z,23.98
2019-04-10T19:06:53.129Z,23.95
2019-04-10T19:09:28.652Z,23.94
2019-04-10T19:12:02.498Z,23.89
2019-04-10T19:14:37.171Z,23.87
2019-04-10T19:17:11.153Z,23.84
2019-04-10T19:19:45.411Z,23.82
2019-04-10T19:22:20.199Z,23.77
2019-04-10T19:24:54.751Z,23.75
2019-04-10T19:27:28.481Z,23.74
2019-04-10T19:30:02.764Z,23.85
2019-04-10T19:32:37.428Z,23.77
2019-04-10T19:35:11.562Z,23.71
2019-04-10T19:37:45.832Z,23.99
2019-04-10T19:40:19.997Z,23.83
2019-04-10T19:42:53.627Z,23.77
2019-04-10T19:45:27.950Z,23.72
2019-04-10T19:48:01.702Z,23.69
2019-04-10T19:50:35.280Z,23.66
2019-04-10T19:53:08.994Z,23.63
2019-04-10T19:55:44.126Z,23.57
2019-04-10T19:58:17.877Z,23.55
2019-04-10T20:00:52.684Z,23.52
2019-04-10T20:06:00.217Z,23.45
2019-04-10T20:08:33.982Z,23.44
2019-04-10T20:11:07.433Z,23.40
2019-04-10T20:13:42.949Z,23.22
2019-04-10T20:16:17.385Z,23.03
2019-04-10T20:18:50.866Z,22.40
2019-04-10T20:21:24.216Z,22.75
2019-04-10T20:23:58.573Z,22.86
2019-04-10T20:26:32.193Z,22.71
2019-04-10T20:29:06.585Z,22.67
2019-04-10T20:31:40.212Z,22.63
2019-04-10T20:34:13.722Z,22.60
2019-04-10T20:36:47.099Z,22.62
2019-04-10T20:39:21.085Z,22.56
2019-04-10T20:41:56.825Z,22.53
2019-04-10T20:44:29.968Z,22.44
2019-04-10T20:47:03.485Z,22.43
2019-04-10T20:49:36.814Z,22.54
2019-04-10T20:52:11.959Z,22.86
2019-04-10T20:54:45.425Z,22.83
2019-04-10T20:57:19.420Z,22.68
2019-04-10T20:59:53.281Z,22.64
2019-04-10T21:02:27.149Z,22.87
2019-04-10T21:05:06.062Z,22.66
2019-04-10T21:07:37.487Z,22.57
2019-04-10T21:10:11.028Z,22.52
2019-04-10T21:12:44.477Z,22.81
2019-04-10T21:15:17.879Z,22.72
2019-04-10T21:17:51.326Z,22.55
2019-04-10T21:20:26.103Z,22.42
2019-04-10T21:22:59.919Z,22.68
2019-04-10T21:25:35.054Z,22.44
2019-04-10T21:28:08.439Z,22.39
2019-04-10T21:30:42.455Z,22.32
2019-04-10T21:33:16.327Z,22.30
2019-04-10T21:35:49.791Z,22.21
2019-04-10T21:38:23.590Z,22.20
2019-04-10T21:40:57.425Z,22.19
2019-04-10T21:43:31.093Z,22.14
2019-04-10T21:46:05.990Z,22.12
2019-04-10T21:48:41.938Z,22.08
2019-04-10T21:51:15.415Z,22.03
2019-04-10T21:53:49.372Z,22.03
2019-04-10T21:56:22.877Z,21.45
2019-04-10T21:58:56.958Z,21.98
2019-04-10T22:01:30.484Z,22.02
2019-04-10T22:04:03.804Z,22.00
2019-04-10T22:06:39.110Z,21.96
2019-04-10T22:09:12.820Z,21.92
2019-04-10T22:11:47.651Z,22.00
2019-04-10T22:14:21.487Z,21.93
2019-04-10T22:16:54.898Z,21.35
2019-04-10T22:19:28.475Z,21.87
2019-04-10T22:22:04.208Z,21.98
2019-04-10T22:24:38.409Z,21.88
2019-04-10T22:27:12.038Z,22.05
2019-04-10T22:29:45.542Z,21.89
2019-04-10T22:32:18.922Z,21.84
2019-04-10T22:34:52.771Z,21.82
2019-04-10T22:37:26.217Z,22.04
2019-04-10T22:39:59.555Z,21.90
2019-04-10T22:42:40.031Z,21.98
2019-04-10T22:45:24.507Z,21.83
2019-04-10T22:47:58.473Z,21.79
2019-04-10T22:50:34.356Z,21.75
2019-04-10T22:53:08.869Z,21.73
2019-04-10T22:55:42.366Z,21.68
2019-04-10T22:58:16.994Z,22.00
2019-04-10T23:00:51.036Z,21.82
2019-04-10T23:03:24.524Z,21.99
2019-04-10T23:05:58.616Z,21.75
2019-04-10T23:08:32.198Z,21.71
2019-04-10T23:11:07.705Z,21.67
2019-04-10T23:13:42.427Z,21.95
2019-04-10T23:16:17.152Z,21.74
2019-04-10T23:18:51.810Z,21.67
2019-04-10T23:21:25.273Z,21.59
2019-04-10T23:23:59.141Z,21.55
2019-04-10T23:26:33.306Z,21.51
2019-04-10T23:29:06.717Z,21.48
2019-04-10T23:31:40.239Z,21.54
2019-04-10T23:34:14.565Z,21.44
2019-04-10T23:36:48.671Z,21.43
2019-04-10T23:39:22.166Z,21.41
2019-04-10T23:41:55.516Z,21.36
2019-04-10T23:44:29.114Z,21.38
2019-04-10T23:47:02.557Z,21.30
2019-04-10T23:49:35.856Z,21.30
2019-04-10T23:52:09.690Z,21.30
2019-04-10T23:54:43.651Z,21.25
2019-04-10T23:57:17.006Z,21.24
2019-04-10T23:59:50.982Z,21.22
